createdAt,value
2022-07-28T00:00:14.941Z,956.83
2022-07-28T00:01:16.514Z,956.83
2022-07-28T00:02:14.978Z,956.84
2022-07-28T00:03:14.946Z,956.88
2022-07-28T00:04:15.202Z,956.87
2022-07-28T00:05:14.884Z,956.83
2022-07-28T00:06:14.873Z,956.84
2022-07-28T00:07:14.863Z,956.81
2022-07-28T00:08:14.853Z,956.83
2022-07-28T00:09:14.841Z,956.84
2022-07-28T00:10:14.827Z,956.85
2022-07-28T00:11:14.817Z,956.8
2022-07-28T00:12:14.807Z,956.79
2022-07-28T00:13:14.797Z,956.73
2022-07-28T00:14:15.063Z,956.76
2022-07-28T00:15:14.773Z,956.73
2022-07-28T00:16:14.792Z,956.71
2022-07-28T00:17:14.752Z,956.74
2022-07-28T00:18:14.739Z,956.72
2022-07-28T00:19:14.731Z,956.71
2022-07-28T00:20:14.714Z,956.74
2022-07-28T00:21:14.707Z,956.71
2022-07-28T00:22:14.696Z,956.7
2022-07-28T00:23:14.683Z,956.71
2022-07-28T00:24:15.117Z,956.66
2022-07-28T00:25:14.660Z,956.64
2022-07-28T00:26:14.649Z,956.59
2022-07-28T00:27:14.633Z,956.62
2022-07-28T00:28:14.626Z,956.65
2022-07-28T00:29:14.613Z,956.66
2022-07-28T00:30:14.642Z,956.62
2022-07-28T00:31:14.627Z,956.66
2022-07-28T00:32:14.581Z,956.62
2022-07-28T00:33:14.566Z,956.62
2022-07-28T00:34:14.946Z,956.63
2022-07-28T00:35:15.006Z,956.66
2022-07-28T00:36:14.534Z,956.67
2022-07-28T00:37:15.109Z,956.66
2022-07-28T00:38:14.513Z,956.65
2022-07-28T00:39:14.499Z,956.63
2022-07-28T00:40:14.491Z,956.66
2022-07-28T00:41:14.478Z,956.66
2022-07-28T00:42:14.466Z,956.65
2022-07-28T00:43:14.456Z,956.64
2022-07-28T00:44:14.681Z,956.6
2022-07-28T00:45:14.435Z,956.58
2022-07-28T00:46:14.453Z,956.6
2022-07-28T00:47:14.415Z,956.57
2022-07-28T00:48:14.403Z,956.6
2022-07-28T00:49:14.499Z,956.54
2022-07-28T00:50:14.381Z,956.54
2022-07-28T00:51:14.369Z,956.54
2022-07-28T00:52:14.356Z,956.49
2022-07-28T00:53:14.345Z,956.5
2022-07-28T00:54:14.729Z,956.51
2022-07-28T00:55:14.322Z,956.48
2022-07-28T00:56:14.310Z,956.48
2022-07-28T00:57:14.301Z,956.44
2022-07-28T00:58:14.289Z,956.44
2022-07-28T00:59:14.276Z,956.44
2022-07-28T01:00:14.265Z,956.39
2022-07-28T01:01:14.252Z,956.37
2022-07-28T01:02:14.382Z,956.38
2022-07-28T01:03:14.250Z,956.36
2022-07-28T01:04:14.557Z,956.33
2022-07-28T01:05:14.207Z,956.34
2022-07-28T01:06:14.197Z,956.34
2022-07-28T01:07:14.182Z,956.34
2022-07-28T01:08:14.173Z,956.39
2022-07-28T01:09:14.163Z,956.35
2022-07-28T01:10:14.148Z,956.36
2022-07-28T01:11:14.137Z,956.38
2022-07-28T01:12:14.127Z,956.34
2022-07-28T01:13:14.113Z,956.35
2022-07-28T01:14:14.475Z,956.34
2022-07-28T01:15:14.090Z,956.34
2022-07-28T01:16:14.122Z,956.33
2022-07-28T01:17:14.065Z,956.34
2022-07-28T01:18:14.055Z,956.32
2022-07-28T01:19:14.076Z,956.34
2022-07-28T01:20:14.029Z,956.31
2022-07-28T01:21:14.019Z,956.3
2022-07-28T01:22:14.007Z,956.35
2022-07-28T01:23:13.999Z,956.34
2022-07-28T01:24:14.259Z,956.34
2022-07-28T01:25:13.973Z,956.34
2022-07-28T01:26:13.962Z,956.38
2022-07-28T01:27:13.954Z,956.34
2022-07-28T01:28:13.936Z,956.32
2022-07-28T01:29:13.927Z,956.35
2022-07-28T01:30:13.912Z,956.34
2022-07-28T01:31:13.927Z,956.31
2022-07-28T01:32:14.387Z,956.3
2022-07-28T01:33:14.376Z,956.33
2022-07-28T01:34:14.811Z,956.28
2022-07-28T01:35:14.356Z,956.31
2022-07-28T01:36:14.340Z,956.32
2022-07-28T01:37:14.331Z,956.33
2022-07-28T01:38:14.315Z,956.35
2022-07-28T01:39:14.307Z,956.36
2022-07-28T01:40:14.293Z,956.38
2022-07-28T01:41:14.283Z,956.38
2022-07-28T01:42:14.270Z,956.38
2022-07-28T01:43:14.259Z,956.43
2022-07-28T01:44:14.573Z,956.45
2022-07-28T01:45:14.235Z,956.45
2022-07-28T01:46:14.299Z,956.48
2022-07-28T01:47:14.212Z,956.44
2022-07-28T01:48:14.198Z,956.45
2022-07-28T01:49:14.277Z,956.5
2022-07-28T01:50:14.179Z,956.47
2022-07-28T01:51:14.169Z,956.52
2022-07-28T01:52:14.152Z,956.53
2022-07-28T01:53:14.143Z,956.51
2022-07-28T01:54:14.392Z,956.5
2022-07-28T01:55:14.118Z,956.49
2022-07-28T01:56:14.104Z,956.52
2022-07-28T01:57:14.096Z,956.47
2022-07-28T01:58:14.083Z,956.48
2022-07-28T01:59:14.071Z,956.49
2022-07-28T02:00:14.057Z,956.46
2022-07-28T02:01:14.083Z,956.47
2022-07-28T02:02:14.036Z,956.47
2022-07-28T02:03:14.024Z,956.45
2022-07-28T02:04:14.409Z,956.43
2022-07-28T02:05:14.075Z,956.44
2022-07-28T02:06:13.988Z,956.48
2022-07-28T02:07:13.976Z,956.46
2022-07-28T02:08:13.963Z,956.42
2022-07-28T02:09:13.950Z,956.4
2022-07-28T02:10:13.941Z,956.41
2022-07-28T02:11:13.926Z,956.38
2022-07-28T02:12:13.915Z,956.39
2022-07-28T02:13:13.902Z,956.36
2022-07-28T02:14:14.200Z,956.33
2022-07-28T02:15:13.879Z,956.29
2022-07-28T02:16:13.918Z,956.3
2022-07-28T02:17:13.855Z,956.26
2022-07-28T02:18:13.844Z,956.26
2022-07-28T02:19:13.832Z,956.29
2022-07-28T02:20:13.822Z,956.3
2022-07-28T02:21:13.808Z,956.29
2022-07-28T02:22:13.796Z,956.3
2022-07-28T02:23:13.785Z,956.3
2022-07-28T02:24:14.665Z,956.27
2022-07-28T02:25:14.306Z,956.32
2022-07-28T02:26:14.299Z,956.31
2022-07-28T02:27:14.286Z,956.28
2022-07-28T02:28:14.276Z,956.28
2022-07-28T02:29:27.587Z,956.29
2022-07-28T02:30:14.250Z,956.29
2022-07-28T02:31:14.268Z,956.3
2022-07-28T02:32:23.435Z,956.33
2022-07-28T02:33:14.213Z,956.31
2022-07-28T02:34:14.467Z,956.32
2022-07-28T02:35:14.187Z,956.31
2022-07-28T02:36:16.137Z,956.31
2022-07-28T02:37:14.163Z,956.26
2022-07-28T02:38:14.152Z,956.28
2022-07-28T02:39:14.141Z,956.29
2022-07-28T02:40:14.130Z,956.26
2022-07-28T02:41:14.117Z,956.23
2022-07-28T02:42:14.104Z,956.24
2022-07-28T02:43:14.092Z,956.26
2022-07-28T02:44:14.539Z,956.2
2022-07-28T02:45:14.065Z,956.24
2022-07-28T02:46:14.151Z,956.25
2022-07-28T02:47:14.044Z,956.19
2022-07-28T02:48:14.031Z,956.22
2022-07-28T02:49:14.124Z,956.22
2022-07-28T02:50:14.009Z,956.23
2022-07-28T02:51:13.993Z,956.24
2022-07-28T02:52:13.985Z,956.24
2022-07-28T02:53:15.397Z,956.23
2022-07-28T02:54:14.371Z,956.26
2022-07-28T02:55:13.945Z,956.26
2022-07-28T02:56:13.934Z,956.27
2022-07-28T02:57:13.924Z,956.24
2022-07-28T02:58:13.909Z,956.26
2022-07-28T02:59:13.895Z,956.24
2022-07-28T03:00:13.886Z,956.22
2022-07-28T03:01:13.896Z,956.26
2022-07-28T03:02:13.858Z,956.27
2022-07-28T03:03:13.848Z,956.26
2022-07-28T03:04:14.084Z,956.24
2022-07-28T03:05:13.919Z,956.22
2022-07-28T03:06:13.814Z,956.25
2022-07-28T03:07:13.799Z,956.21
2022-07-28T03:08:13.786Z,956.24
2022-07-28T03:09:13.774Z,956.2
2022-07-28T03:10:13.762Z,956.22
2022-07-28T03:11:13.754Z,956.27
2022-07-28T03:12:13.737Z,956.27
2022-07-28T03:13:13.727Z,956.27
2022-07-28T03:14:14.057Z,956.3
2022-07-28T03:15:13.700Z,956.3
2022-07-28T03:16:13.687Z,956.35
2022-07-28T03:17:13.741Z,956.3
2022-07-28T03:18:13.663Z,956.34
2022-07-28T03:19:13.652Z,956.35
2022-07-28T03:20:13.637Z,956.33
2022-07-28T03:21:13.778Z,956.34
2022-07-28T03:22:13.614Z,956.29
2022-07-28T03:23:13.602Z,956.3
2022-07-28T03:24:13.875Z,956.32
2022-07-28T03:25:13.579Z,956.35
2022-07-28T03:26:13.565Z,956.35
2022-07-28T03:27:13.552Z,956.34
2022-07-28T03:28:13.539Z,956.37
2022-07-28T03:29:13.529Z,956.39
2022-07-28T03:30:13.515Z,956.38
2022-07-28T03:31:13.597Z,956.39
2022-07-28T03:32:13.489Z,956.34
2022-07-28T03:49:35.364Z,956.44
2022-07-28T03:50:35.393Z,956.47
2022-07-28T03:51:35.334Z,956.45
2022-07-28T03:52:35.314Z,956.46
2022-07-28T03:53:35.303Z,956.44
2022-07-28T03:54:35.285Z,956.44
2022-07-28T03:55:35.282Z,956.44
2022-07-28T03:56:35.255Z,956.45
2022-07-28T03:57:35.244Z,956.46
2022-07-28T03:58:35.231Z,956.47
2022-07-28T03:59:35.217Z,956.46
2022-07-28T04:00:35.208Z,956.47
2022-07-28T04:01:35.312Z,956.45
2022-07-28T04:02:35.249Z,956.45
2022-07-28T04:03:35.421Z,956.46
2022-07-28T04:04:35.151Z,956.49
2022-07-28T04:05:35.173Z,956.43
2022-07-28T04:06:35.125Z,956.44
2022-07-28T04:07:35.117Z,956.45
2022-07-28T04:08:35.122Z,956.45
2022-07-28T04:09:35.091Z,956.44
2022-07-28T04:10:35.149Z,956.43
2022-07-28T04:11:35.066Z,956.43
2022-07-28T04:12:35.051Z,956.4
2022-07-28T04:13:35.042Z,956.39
2022-07-28T04:14:35.026Z,956.36
2022-07-28T04:15:35.028Z,956.34
2022-07-28T04:16:35.049Z,956.32
2022-07-28T04:17:34.991Z,956.29
2022-07-28T04:18:34.977Z,956.27
2022-07-28T04:19:34.970Z,956.31
2022-07-28T04:20:35.007Z,956.28
2022-07-28T04:21:34.943Z,956.29
2022-07-28T04:22:34.929Z,956.33
2022-07-28T04:23:34.922Z,956.34
2022-07-28T04:24:34.907Z,956.32
2022-07-28T04:25:34.904Z,956.32
2022-07-28T04:26:34.884Z,956.36
2022-07-28T04:27:34.873Z,956.33
2022-07-28T04:28:34.865Z,956.37
2022-07-28T04:29:34.849Z,956.36
2022-07-28T04:30:34.979Z,956.36
2022-07-28T04:31:34.829Z,956.37
2022-07-28T04:32:34.815Z,956.39
2022-07-28T04:33:34.804Z,956.35
2022-07-28T04:34:34.792Z,956.36
2022-07-28T04:35:34.792Z,956.37
2022-07-28T04:36:34.768Z,956.36
2022-07-28T04:37:34.761Z,956.35
2022-07-28T04:38:34.746Z,956.36
2022-07-28T04:39:34.736Z,956.34
2022-07-28T04:40:34.778Z,956.39
2022-07-28T04:41:34.716Z,956.38
2022-07-28T04:42:34.704Z,956.38
2022-07-28T04:43:34.693Z,956.41
2022-07-28T04:44:34.684Z,956.37
2022-07-28T04:45:34.751Z,956.37
2022-07-28T04:46:34.701Z,956.38
2022-07-28T04:47:34.649Z,956.33
2022-07-28T04:48:34.691Z,956.3
2022-07-28T04:49:35.600Z,956.29
2022-07-28T04:50:34.618Z,956.32
2022-07-28T04:51:34.606Z,956.33
2022-07-28T04:52:34.597Z,956.32
2022-07-28T04:53:34.586Z,956.35
2022-07-28T04:54:34.580Z,956.31
2022-07-28T04:55:34.565Z,956.33
2022-07-28T04:56:34.558Z,956.31
2022-07-28T04:57:34.546Z,956.26
2022-07-28T04:58:34.533Z,956.21
2022-07-28T04:59:34.524Z,956.21
2022-07-28T05:00:34.517Z,956.19
2022-07-28T05:01:34.614Z,956.17
2022-07-28T05:02:34.494Z,956.23
2022-07-28T05:03:36.394Z,956.28
2022-07-28T05:04:34.538Z,956.26
2022-07-28T05:05:34.461Z,956.32
2022-07-28T05:06:34.454Z,956.33
2022-07-28T05:07:34.443Z,956.31
2022-07-28T05:08:34.437Z,956.31
2022-07-28T05:09:34.425Z,956.29
2022-07-28T05:10:34.416Z,956.29
2022-07-28T05:11:34.403Z,956.28
2022-07-28T05:12:34.396Z,956.31
2022-07-28T05:13:34.539Z,956.32
2022-07-28T05:14:34.376Z,956.32
2022-07-28T05:15:34.366Z,956.3
2022-07-28T05:16:34.403Z,956.29
2022-07-28T05:17:34.348Z,956.28
2022-07-28T05:18:34.342Z,956.25
2022-07-28T05:19:34.327Z,956.25
2022-07-28T05:20:34.318Z,956.27
2022-07-28T05:21:34.307Z,956.27
2022-07-28T05:22:34.299Z,956.27
2022-07-28T05:23:34.288Z,956.27
2022-07-28T05:24:34.280Z,956.3
2022-07-28T05:25:34.270Z,956.27
2022-07-28T05:26:34.265Z,956.3
2022-07-28T05:27:34.252Z,956.24
2022-07-28T05:28:34.243Z,956.24
2022-07-28T05:29:37.598Z,956.24
2022-07-28T05:30:34.226Z,956.21
2022-07-28T05:31:34.268Z,956.24
2022-07-28T05:32:34.205Z,956.23
2022-07-28T05:33:34.199Z,956.28
2022-07-28T05:34:34.186Z,956.29
2022-07-28T05:35:34.189Z,956.3
2022-07-28T05:36:34.168Z,956.32
2022-07-28T05:37:34.163Z,956.36
2022-07-28T05:38:34.151Z,956.33
2022-07-28T05:39:34.144Z,956.36
2022-07-28T05:40:34.141Z,956.3
2022-07-28T05:41:34.126Z,956.31
2022-07-28T05:42:34.116Z,956.29
2022-07-28T05:43:34.108Z,956.3
2022-07-28T05:44:38.098Z,956.31
2022-07-28T05:45:34.179Z,956.3
2022-07-28T05:46:34.083Z,956.32
2022-07-28T05:47:34.074Z,956.35
2022-07-28T05:48:34.121Z,956.37
2022-07-28T05:49:34.058Z,956.33
2022-07-28T05:50:34.047Z,956.39
2022-07-28T05:51:37.140Z,956.39
2022-07-28T05:52:34.031Z,956.41
2022-07-28T05:53:34.022Z,956.41
2022-07-28T05:54:34.012Z,956.42
2022-07-28T05:55:34.007Z,956.44
2022-07-28T05:56:33.995Z,956.45
2022-07-28T05:57:33.990Z,956.43
2022-07-28T05:58:33.980Z,956.47
2022-07-28T05:59:33.973Z,956.49
2022-07-28T06:00:33.967Z,956.53
2022-07-28T06:01:34.048Z,956.48
2022-07-28T06:02:34.127Z,956.47
2022-07-28T06:03:37.118Z,956.45
2022-07-28T06:04:34.277Z,956.49
2022-07-28T06:05:33.933Z,956.52
2022-07-28T06:06:33.915Z,956.46
2022-07-28T06:07:42.498Z,956.47
2022-07-28T06:08:33.901Z,956.48
2022-07-28T06:09:33.892Z,956.48
2022-07-28T06:10:33.887Z,956.44
2022-07-28T06:11:33.875Z,956.41
2022-07-28T06:12:33.868Z,956.44
2022-07-28T06:13:33.867Z,956.4
2022-07-28T06:14:33.855Z,956.4
2022-07-28T06:15:33.847Z,956.44
2022-07-28T06:16:33.975Z,956.42
2022-07-28T06:17:33.829Z,956.43
2022-07-28T06:18:33.819Z,956.46
2022-07-28T06:19:33.816Z,956.43
2022-07-28T06:20:33.805Z,956.38
2022-07-28T06:21:33.799Z,956.4
2022-07-28T06:22:33.790Z,956.37
2022-07-28T06:23:33.780Z,956.36
2022-07-28T06:24:33.775Z,956.4
2022-07-28T06:25:33.766Z,956.4
2022-07-28T06:26:33.760Z,956.42
2022-07-28T06:27:33.751Z,956.43
2022-07-28T06:28:33.746Z,956.43
2022-07-28T06:29:33.735Z,956.48
2022-07-28T06:30:33.730Z,956.47
2022-07-28T06:31:33.780Z,956.5
2022-07-28T06:32:33.716Z,956.49
2022-07-28T06:33:33.706Z,956.53
2022-07-28T06:34:33.699Z,956.52
2022-07-28T06:35:33.694Z,956.52
2022-07-28T06:36:33.686Z,956.51
2022-07-28T06:37:33.675Z,956.52
2022-07-28T06:38:33.672Z,956.52
2022-07-28T06:39:33.662Z,956.47
2022-07-28T06:40:33.655Z,956.49
2022-07-28T06:41:33.645Z,956.46
2022-07-28T06:42:33.641Z,956.44
2022-07-28T06:43:36.743Z,956.46
2022-07-28T06:44:55.176Z,956.45
2022-07-28T06:45:33.618Z,956.47
2022-07-28T06:46:33.669Z,956.46
2022-07-28T06:47:33.605Z,956.46
2022-07-28T06:48:33.615Z,956.47
2022-07-28T06:49:33.589Z,956.41
2022-07-28T06:50:33.584Z,956.49
2022-07-28T06:51:33.574Z,956.47
2022-07-28T06:52:33.571Z,956.47
2022-07-28T06:53:34.779Z,956.43
2022-07-28T06:54:33.556Z,956.46
2022-07-28T06:55:34.764Z,956.44
2022-07-28T06:56:33.543Z,956.45
2022-07-28T06:57:33.912Z,956.46
2022-07-28T06:58:33.533Z,956.44
2022-07-28T06:59:33.525Z,956.37
2022-07-28T07:00:33.652Z,956.37
2022-07-28T07:01:33.552Z,956.39
2022-07-28T07:02:33.512Z,956.38
2022-07-28T07:03:33.508Z,956.43
2022-07-28T07:04:33.530Z,956.46
2022-07-28T07:05:33.498Z,956.47
2022-07-28T07:06:33.496Z,956.52
2022-07-28T07:07:33.499Z,956.54
2022-07-28T07:08:33.489Z,956.56
2022-07-28T07:09:33.532Z,956.53
2022-07-28T07:10:33.483Z,956.53
2022-07-28T07:11:33.478Z,956.54
2022-07-28T07:12:33.478Z,956.5
2022-07-28T07:13:33.497Z,956.48
2022-07-28T07:14:33.470Z,956.47
2022-07-28T07:15:34.770Z,956.5
2022-07-28T07:16:33.538Z,956.48
2022-07-28T07:17:33.468Z,956.5
2022-07-28T07:18:33.464Z,956.48
2022-07-28T07:19:33.466Z,956.49
2022-07-28T07:20:33.461Z,956.47
2022-07-28T07:21:33.464Z,956.5
2022-07-28T07:22:33.466Z,956.5
2022-07-28T07:23:33.465Z,956.51
2022-07-28T07:24:33.464Z,956.49
2022-07-28T07:25:33.460Z,956.49
2022-07-28T07:26:33.458Z,956.53
2022-07-28T07:27:33.462Z,956.53
2022-07-28T07:28:33.460Z,956.54
2022-07-28T07:29:33.463Z,956.54
2022-07-28T07:30:33.463Z,956.54
2022-07-28T07:31:33.553Z,956.51
2022-07-28T07:32:33.464Z,956.55
2022-07-28T07:33:33.469Z,956.52
2022-07-28T07:34:33.469Z,956.53
2022-07-28T07:35:33.472Z,956.51
2022-07-28T07:36:33.471Z,956.45
2022-07-28T07:37:33.476Z,956.47
2022-07-28T07:38:33.477Z,956.41
2022-07-28T07:39:33.479Z,956.42
2022-07-28T07:40:33.481Z,956.41
2022-07-28T07:41:33.485Z,956.46
2022-07-28T07:42:33.488Z,956.48
2022-07-28T07:43:33.490Z,956.48
2022-07-28T07:44:33.494Z,956.51
2022-07-28T07:45:33.497Z,956.56
2022-07-28T07:46:33.529Z,956.53
2022-07-28T07:47:33.505Z,956.58
2022-07-28T07:48:33.551Z,956.58
2022-07-28T07:49:42.230Z,956.57
2022-07-28T07:50:33.514Z,956.56
2022-07-28T07:51:33.521Z,956.57
2022-07-28T07:52:33.523Z,956.57
2022-07-28T07:53:33.526Z,956.6
2022-07-28T07:54:33.533Z,956.64
2022-07-28T07:55:36.256Z,956.67
2022-07-28T07:56:33.538Z,956.67
2022-07-28T07:57:33.543Z,956.44
2022-07-28T07:58:33.546Z,956.25
2022-07-28T07:59:33.550Z,956.18
2022-07-28T08:00:33.569Z,956.25
2022-07-28T08:01:33.585Z,956.22
2022-07-28T08:02:33.559Z,956.21
2022-07-28T08:03:33.564Z,956.2
2022-07-28T08:04:37.040Z,956.24
2022-07-28T08:05:35.272Z,956.23
2022-07-28T08:06:33.571Z,956.22
2022-07-28T08:07:33.573Z,956.19
2022-07-28T08:08:38.623Z,956.17
2022-07-28T08:09:33.579Z,956.23
2022-07-28T08:10:33.581Z,956.21
2022-07-28T08:11:33.580Z,956.23
2022-07-28T08:12:33.585Z,956.21
2022-07-28T08:13:33.584Z,956.23
2022-07-28T08:14:33.588Z,956.24
2022-07-28T08:15:33.590Z,956.24
2022-07-28T08:16:33.611Z,956.26
2022-07-28T08:17:33.590Z,956.24
2022-07-28T08:18:33.594Z,956.24
2022-07-28T08:19:33.742Z,956.24
2022-07-28T08:20:33.596Z,956.23
2022-07-28T08:21:33.593Z,956.26
2022-07-28T08:22:33.595Z,956.23
2022-07-28T08:23:33.595Z,956.18
2022-07-28T08:24:34.305Z,956.18
2022-07-28T08:25:33.596Z,956.16
2022-07-28T08:26:33.595Z,956.18
2022-07-28T08:27:33.596Z,956.15
2022-07-28T08:28:33.596Z,956.18
2022-07-28T08:29:33.595Z,956.18
2022-07-28T08:30:33.655Z,956.18
2022-07-28T08:31:35.357Z,956.17
2022-07-28T08:32:33.595Z,956.14
2022-07-28T08:33:33.589Z,956.17
2022-07-28T08:34:34.045Z,956.13
2022-07-28T08:35:35.231Z,956.14
2022-07-28T08:36:33.593Z,956.11
2022-07-28T08:37:33.587Z,956.13
2022-07-28T08:38:33.588Z,956.1
2022-07-28T08:39:33.586Z,956.1
2022-07-28T08:40:33.639Z,956.14
2022-07-28T08:41:34.019Z,956.1
2022-07-28T08:42:33.581Z,956.08
2022-07-28T08:43:33.581Z,956.04
2022-07-28T08:44:33.581Z,956.03
2022-07-28T08:45:33.576Z,956.09
2022-07-28T08:46:33.594Z,956.13
2022-07-28T08:47:45.840Z,956.11
2022-07-28T08:48:33.681Z,956.1
2022-07-28T08:49:33.571Z,956.1
2022-07-28T08:50:33.569Z,956.12
2022-07-28T08:51:33.569Z,956.14
2022-07-28T08:52:33.566Z,956.1
2022-07-28T08:53:33.564Z,956.12
2022-07-28T08:54:33.567Z,956.11
2022-07-28T08:55:33.559Z,956.09
2022-07-28T08:56:33.559Z,956.1
2022-07-28T08:57:33.558Z,956.1
2022-07-28T08:58:33.554Z,956.12
2022-07-28T08:59:33.555Z,956.2
2022-07-28T09:00:33.550Z,956.13
2022-07-28T09:01:38.198Z,956.14
2022-07-28T09:02:33.731Z,956.14
2022-07-28T09:03:33.570Z,956.17
2022-07-28T09:04:33.545Z,956.14
2022-07-28T09:05:33.546Z,956.13
2022-07-28T09:06:33.540Z,956.12
2022-07-28T09:07:33.542Z,956.11
2022-07-28T09:08:33.538Z,956.17
2022-07-28T09:09:33.544Z,956.14
2022-07-28T09:10:33.535Z,956.13
2022-07-28T09:11:33.536Z,956.12
2022-07-28T09:12:33.532Z,956.15
2022-07-28T09:13:33.529Z,956.08
2022-07-28T09:14:33.529Z,956.1
2022-07-28T09:15:33.568Z,956.14
2022-07-28T09:16:33.526Z,956.13
2022-07-28T09:17:33.525Z,956.14
2022-07-28T09:18:33.522Z,956.14
2022-07-28T09:19:34.177Z,956.13
2022-07-28T09:20:33.517Z,956.16
2022-07-28T09:21:33.519Z,956.15
2022-07-28T09:22:33.515Z,956.14
2022-07-28T09:23:43.616Z,956.15
2022-07-28T09:24:33.512Z,956.14
2022-07-28T09:25:33.513Z,956.13
2022-07-28T09:26:33.507Z,956.14
2022-07-28T09:27:33.510Z,956.13
2022-07-28T09:28:33.507Z,956.18
2022-07-28T09:29:33.506Z,956.2
2022-07-28T09:30:33.502Z,956.13
2022-07-28T09:31:33.513Z,956.13
2022-07-28T09:32:33.500Z,956.17
2022-07-28T09:33:40.842Z,956.16
2022-07-28T09:34:33.498Z,956.18
2022-07-28T09:35:33.497Z,956.12
2022-07-28T09:36:33.493Z,956.18
2022-07-28T09:37:33.492Z,956.12
2022-07-28T09:38:33.491Z,956.14
2022-07-28T09:39:33.489Z,956.15
2022-07-28T09:40:33.492Z,956.13
2022-07-28T09:41:33.487Z,956.16
2022-07-28T09:42:33.484Z,956.12
2022-07-28T09:43:33.484Z,956.13
2022-07-28T09:44:34.255Z,956.11
2022-07-28T09:45:34.255Z,956.08
2022-07-28T09:46:34.364Z,956.07
2022-07-28T09:47:34.397Z,956.12
2022-07-28T09:48:34.461Z,956.08
2022-07-28T09:49:34.317Z,956.07
2022-07-28T09:50:34.246Z,956.07
2022-07-28T09:51:34.246Z,956.02
2022-07-28T09:52:34.243Z,956.1
2022-07-28T09:53:34.240Z,956.04
2022-07-28T09:54:37.436Z,956.03
2022-07-28T09:55:34.238Z,956.04
2022-07-28T09:56:34.237Z,955.96
2022-07-28T09:57:34.235Z,955.99
2022-07-28T09:58:34.232Z,955.94
2022-07-28T09:59:34.229Z,955.91
2022-07-28T10:00:34.230Z,955.92
2022-07-28T10:01:36.971Z,956.02
2022-07-28T10:02:34.280Z,956.05
2022-07-28T10:03:34.222Z,955.98
2022-07-28T10:04:34.222Z,956
2022-07-28T10:05:34.220Z,955.97
2022-07-28T10:06:34.223Z,955.98
2022-07-28T10:07:34.217Z,955.94
2022-07-28T10:08:34.217Z,955.89
2022-07-28T10:09:34.216Z,955.93
2022-07-28T10:10:34.214Z,955.98
2022-07-28T10:11:37.842Z,955.97
2022-07-28T10:12:34.211Z,956
2022-07-28T10:13:34.206Z,956.01
2022-07-28T10:14:34.207Z,955.97
2022-07-28T10:15:34.292Z,956.01
2022-07-28T10:16:34.249Z,955.93
2022-07-28T10:17:34.201Z,955.95
2022-07-28T10:18:34.205Z,955.95
2022-07-28T10:19:34.199Z,955.94
2022-07-28T10:20:34.199Z,955.96
2022-07-28T10:21:34.197Z,955.92
2022-07-28T10:22:34.653Z,955.92
2022-07-28T10:23:34.194Z,955.84
2022-07-28T10:24:34.193Z,955.9
2022-07-28T10:25:34.192Z,955.94
2022-07-28T10:26:34.193Z,955.94
2022-07-28T10:27:34.187Z,955.87
2022-07-28T10:28:35.065Z,955.85
2022-07-28T10:29:34.184Z,955.8
2022-07-28T10:30:34.259Z,955.86
2022-07-28T10:31:34.184Z,955.85
2022-07-28T10:32:34.186Z,955.84
2022-07-28T10:33:34.180Z,955.87
2022-07-28T10:34:34.181Z,955.79
2022-07-28T10:35:34.179Z,955.82
2022-07-28T10:36:34.181Z,955.8
2022-07-28T10:37:34.176Z,955.78
2022-07-28T10:38:34.177Z,955.76
2022-07-28T10:39:34.176Z,955.76
2022-07-28T10:40:34.174Z,955.79
2022-07-28T10:41:34.172Z,955.77
2022-07-28T10:42:34.169Z,955.74
2022-07-28T10:43:34.172Z,955.7
2022-07-28T10:44:34.168Z,955.72
2022-07-28T10:45:48.493Z,955.74
2022-07-28T10:46:34.206Z,955.74
2022-07-28T10:47:36.035Z,955.64
2022-07-28T10:48:34.190Z,955.68
2022-07-28T10:49:34.199Z,955.65
2022-07-28T10:50:34.163Z,955.6
2022-07-28T10:51:34.493Z,955.66
2022-07-28T10:52:56.024Z,955.65
2022-07-28T10:53:52.193Z,955.68
2022-07-28T10:54:52.189Z,955.7
2022-07-28T10:55:52.202Z,955.71
2022-07-28T10:56:52.188Z,955.69
2022-07-28T10:58:01.853Z,955.67
2022-07-28T10:58:52.186Z,955.66
2022-07-28T10:59:58.049Z,955.64
2022-07-28T11:00:56.992Z,955.69
2022-07-28T11:01:55.187Z,955.71
2022-07-28T11:02:55.284Z,955.69
2022-07-28T11:03:55.254Z,955.7
2022-07-28T11:04:55.118Z,955.62
2022-07-28T11:05:55.113Z,955.69
2022-07-28T11:06:55.111Z,955.66
2022-07-28T11:07:55.112Z,955.66
2022-07-28T11:08:55.109Z,955.68
2022-07-28T11:09:55.107Z,955.66
2022-07-28T11:10:59.002Z,955.68
2022-07-28T11:11:55.113Z,955.59
2022-07-28T11:12:55.104Z,955.63
2022-07-28T11:13:55.105Z,955.61
2022-07-28T11:14:55.103Z,955.6
2022-07-28T11:15:55.104Z,955.57
2022-07-28T11:16:55.138Z,955.57
2022-07-28T11:17:55.100Z,955.55
2022-07-28T11:18:55.098Z,955.62
2022-07-28T11:20:16.629Z,955.58
2022-07-28T11:20:55.402Z,955.57
2022-07-28T11:21:55.096Z,955.54
2022-07-28T11:22:55.095Z,955.56
2022-07-28T11:23:55.100Z,955.63
2022-07-28T11:24:55.092Z,955.6
2022-07-28T11:25:55.095Z,955.56
2022-07-28T11:26:55.093Z,955.49
2022-07-28T11:27:55.092Z,955.56
2022-07-28T11:28:55.090Z,955.57
2022-07-28T11:29:55.092Z,955.54
2022-07-28T11:30:55.267Z,955.52
2022-07-28T11:31:55.089Z,955.51
2022-07-28T11:32:55.151Z,955.58
2022-07-28T11:33:55.086Z,955.55
2022-07-28T11:34:55.086Z,955.53
2022-07-28T11:35:55.088Z,955.53
2022-07-28T11:36:55.096Z,955.51
2022-07-28T11:37:55.080Z,955.53
2022-07-28T11:38:55.090Z,955.5
2022-07-28T11:39:55.077Z,955.48
2022-07-28T11:40:55.089Z,955.48
2022-07-28T11:41:55.099Z,955.44
2022-07-28T11:42:55.082Z,955.45
2022-07-28T11:43:55.079Z,955.49
2022-07-28T11:44:55.078Z,955.52
2022-07-28T11:45:56.289Z,955.44
2022-07-28T11:46:55.111Z,955.42
2022-07-28T11:47:55.071Z,955.4
2022-07-28T11:48:55.109Z,955.42
2022-07-28T11:49:55.073Z,955.43
2022-07-28T11:50:55.069Z,955.44
2022-07-28T11:51:55.133Z,955.41
2022-07-28T11:52:55.077Z,955.4
2022-07-28T11:53:55.081Z,955.41
2022-07-28T11:54:55.069Z,955.42
2022-07-28T11:55:55.985Z,955.49
2022-07-28T11:56:55.061Z,955.49
2022-07-28T11:57:55.058Z,955.42
2022-07-28T11:58:55.059Z,955.47
2022-07-28T11:59:55.065Z,955.43
2022-07-28T12:00:55.058Z,955.42
2022-07-28T12:01:55.129Z,955.4
2022-07-28T12:02:55.086Z,955.36
2022-07-28T12:03:56.590Z,955.35
2022-07-28T12:04:55.142Z,955.32
2022-07-28T12:05:55.052Z,955.34
2022-07-28T12:06:55.054Z,955.33
2022-07-28T12:07:55.050Z,955.33
2022-07-28T12:08:55.055Z,955.29
2022-07-28T12:09:56.090Z,955.27
2022-07-28T12:10:56.548Z,955.25
2022-07-28T12:11:56.111Z,955.21
2022-07-28T12:12:56.088Z,955.26
2022-07-28T12:13:56.108Z,955.23
2022-07-28T12:14:56.089Z,955.18
2022-07-28T12:15:56.095Z,955.19
2022-07-28T12:16:56.117Z,955.18
2022-07-28T12:17:56.084Z,955.18
2022-07-28T12:18:56.088Z,955.16
2022-07-28T12:19:56.084Z,955.16
2022-07-28T12:20:56.168Z,955.2
2022-07-28T12:21:56.094Z,955.18
2022-07-28T12:22:56.077Z,955.15
2022-07-28T12:23:56.076Z,955.13
2022-07-28T12:24:56.073Z,955.13
2022-07-28T12:25:56.074Z,955.14
2022-07-28T12:26:56.072Z,955.19
2022-07-28T12:27:56.083Z,955.16
2022-07-28T12:28:56.081Z,955.14
2022-07-28T12:29:56.071Z,955.12
2022-07-28T12:30:56.069Z,955.13
2022-07-28T12:31:56.254Z,955.19
2022-07-28T12:32:56.070Z,955.18
2022-07-28T12:33:56.072Z,955.17
2022-07-28T12:34:56.067Z,955.12
2022-07-28T12:35:56.069Z,955.19
2022-07-28T12:36:56.064Z,955.17
2022-07-28T12:37:56.068Z,955.16
2022-07-28T12:38:56.065Z,955.17
2022-07-28T12:39:56.063Z,955.14
2022-07-28T12:40:56.062Z,955.14
2022-07-28T12:41:56.063Z,955.15
2022-07-28T12:42:56.060Z,955.16
2022-07-28T12:43:56.062Z,955.16
2022-07-28T12:44:56.058Z,955.16
2022-07-28T12:45:56.125Z,955.13
2022-07-28T12:46:56.056Z,955.15